sensor_id;sensor_type;location;lat;lon;timestamp;temperature;humidity
9157;DHT22;4613;48.392;9.998;2022-07-29T00:00:58;21.00;99.90
9157;DHT22;4613;48.392;9.998;2022-07-29T00:03:29;21.00;99.90
9157;DHT22;4613;48.392;9.998;2022-07-29T00:06:00;21.00;99.90
9157;DHT22;4613;48.392;9.998;2022-07-29T00:08:31;21.00;99.90
9157;DHT22;4613;48.392;9.998;2022-07-29T00:11:02;20.90;99.90
9157;DHT22;4613;48.392;9.998;2022-07-29T00:13:33;20.80;99.90
9157;DHT22;4613;48.392;9.998;2022-07-29T00:16:04;20.40;99.90
9157;DHT22;4613;48.392;9.998;2022-07-29T00:18:35;19.70;99.90
9157;DHT22;4613;48.392;9.998;2022-07-29T00:21:05;19.40;99.90
9157;DHT22;4613;48.392;9.998;2022-07-29T00:23:37;19.60;99.90
9157;DHT22;4613;48.392;9.998;2022-07-29T00:26:08;19.70;99.90
9157;DHT22;4613;48.392;9.998;2022-07-29T00:28:39;19.70;99.90
9157;DHT22;4613;48.392;9.998;2022-07-29T00:31:10;19.30;99.90
9157;DHT22;4613;48.392;9.998;2022-07-29T00:33:41;19.50;99.90
9157;DHT22;4613;48.392;9.998;2022-07-29T00:36:12;19.30;99.90
9157;DHT22;4613;48.392;9.998;2022-07-29T00:38:42;19.30;99.90
9157;DHT22;4613;48.392;9.998;2022-07-29T00:41:16;19.60;99.90
9157;DHT22;4613;48.392;9.998;2022-07-29T00:43:47;19.70;99.90
9157;DHT22;4613;48.392;9.998;2022-07-29T00:46:18;19.90;99.90
9157;DHT22;4613;48.392;9.998;2022-07-29T00:48:49;19.80;99.90
9157;DHT22;4613;48.392;9.998;2022-07-29T00:51:19;19.30;99.90
9157;DHT22;4613;48.392;9.998;2022-07-29T00:53:50;19.40;99.90
9157;DHT22;4613;48.392;9.998;2022-07-29T00:56:22;19.30;99.90
9157;DHT22;4613;48.392;9.998;2022-07-29T00:58:53;19.30;99.90
9157;DHT22;4613;48.392;9.998;2022-07-29T01:01:24;19.80;99.90
9157;DHT22;4613;48.392;9.998;2022-07-29T01:03:55;20.20;99.90
9157;DHT22;4613;48.392;9.998;2022-07-29T01:06:26;20.30;99.90
9157;DHT22;4613;48.392;9.998;2022-07-29T01:08:58;20.40;99.90
9157;DHT22;4613;48.392;9.998;2022-07-29T01:11:29;20.20;99.90
9157;DHT22;4613;48.392;9.998;2022-07-29T01:14:01;20.30;99.90
9157;DHT22;4613;48.392;9.998;2022-07-29T01:16:39;20.40;99.90
9157;DHT22;4613;48.392;9.998;2022-07-29T01:25:38;20.50;99.90
9157;DHT22;4613;48.392;9.998;2022-07-29T01:31:42;19.80;99.90
9157;DHT22;4613;48.392;9.998;2022-07-29T01:34:21;19.50;99.90
9157;DHT22;4613;48.392;9.998;2022-07-29T01:37:18;19.70;99.90
9157;DHT22;4613;48.392;9.998;2022-07-29T01:39:52;20.10;99.90
9157;DHT22;4613;48.392;9.998;2022-07-29T01:42:34;20.20;99.90
9157;DHT22;4613;48.392;9.998;2022-07-29T01:45:17;20.40;99.90
9157;DHT22;4613;48.392;9.998;2022-07-29T01:48:23;20.20;99.90
9157;DHT22;4613;48.392;9.998;2022-07-29T01:51:18;20.40;99.90
9157;DHT22;4613;48.392;9.998;2022-07-29T01:54:24;20.60;99.90
9157;DHT22;4613;48.392;9.998;2022-07-29T01:56:58;20.50;99.90
9157;DHT22;4613;48.392;9.998;2022-07-29T01:59:31;20.50;99.90
9157;DHT22;4613;48.392;9.998;2022-07-29T02:02:05;20.10;99.90
9157;DHT22;4613;48.392;9.998;2022-07-29T02:04:40;20.20;99.90
9157;DHT22;4613;48.392;9.998;2022-07-29T02:07:15;20.30;99.90
9157;DHT22;4613;48.392;9.998;2022-07-29T02:09:48;20.30;99.90
9157;DHT22;4613;48.392;9.998;2022-07-29T02:12:21;20.20;99.90
9157;DHT22;4613;48.392;9.998;2022-07-29T02:14:53;20.00;99.90
9157;DHT22;4613;48.392;9.998;2022-07-29T02:17:29;20.20;99.90
9157;DHT22;4613;48.392;9.998;2022-07-29T02:20:03;19.90;99.90
9157;DHT22;4613;48.392;9.998;2022-07-29T02:22:37;19.80;99.90
9157;DHT22;4613;48.392;9.998;2022-07-29T02:25:10;19.80;99.90
9157;DHT22;4613;48.392;9.998;2022-07-29T02:27:42;19.80;99.90
9157;DHT22;4613;48.392;9.998;2022-07-29T02:30:13;20.00;99.90
9157;DHT22;4613;48.392;9.998;2022-07-29T02:32:46;19.90;99.90
9157;DHT22;4613;48.392;9.998;2022-07-29T02:35:18;19.80;99.90
9157;DHT22;4613;48.392;9.998;2022-07-29T02:37:51;19.70;99.90
9157;DHT22;4613;48.392;9.998;2022-07-29T02:40:45;19.70;99.90
9157;DHT22;4613;48.392;9.998;2022-07-29T02:43:17;19.70;99.90
9157;DHT22;4613;48.392;9.998;2022-07-29T02:45:51;19.80;99.90
9157;DHT22;4613;48.392;9.998;2022-07-29T02:48:32;19.90;99.90
9157;DHT22;4613;48.392;9.998;2022-07-29T02:51:12;20.10;99.90
9157;DHT22;4613;48.392;9.998;2022-07-29T02:53:51;19.90;99.90
9157;DHT22;4613;48.392;9.998;2022-07-29T02:56:25;19.60;99.90
9157;DHT22;4613;48.392;9.998;2022-07-29T02:59:02;19.40;99.90
9157;DHT22;4613;48.392;9.998;2022-07-29T03:01:34;19.60;99.90
9157;DHT22;4613;48.392;9.998;2022-07-29T03:04:08;19.40;99.90
9157;DHT22;4613;48.392;9.998;2022-07-29T03:06:40;19.30;99.90
9157;DHT22;4613;48.392;9.998;2022-07-29T03:09:13;19.30;99.90
9157;DHT22;4613;48.392;9.998;2022-07-29T03:11:44;19.20;99.90
9157;DHT22;4613;48.392;9.998;2022-07-29T03:14:17;19.30;99.90
9157;DHT22;4613;48.392;9.998;2022-07-29T03:16:50;19.30;99.90
9157;DHT22;4613;48.392;9.998;2022-07-29T03:19:21;19.10;99.90
9157;DHT22;4613;48.392;9.998;2022-07-29T03:21:54;19.20;99.90
9157;DHT22;4613;48.392;9.998;2022-07-29T03:24:34;19.10;99.90
9157;DHT22;4613;48.392;9.998;2022-07-29T03:27:05;18.90;99.90
9157;DHT22;4613;48.392;9.998;2022-07-29T03:29:36;19.00;99.90
9157;DHT22;4613;48.392;9.998;2022-07-29T03:32:08;19.00;99.90
9157;DHT22;4613;48.392;9.998;2022-07-29T03:34:39;19.20;99.90
9157;DHT22;4613;48.392;9.998;2022-07-29T03:37:09;19.00;99.90
9157;DHT22;4613;48.392;9.998;2022-07-29T03:39:41;18.90;99.90
9157;DHT22;4613;48.392;9.998;2022-07-29T03:42:15;19.00;99.90
9157;DHT22;4613;48.392;9.998;2022-07-29T03:44:48;19.20;99.90
9157;DHT22;4613;48.392;9.998;2022-07-29T03:47:23;19.40;99.90
9157;DHT22;4613;48.392;9.998;2022-07-29T03:50:00;19.20;99.90
9157;DHT22;4613;48.392;9.998;2022-07-29T03:52:32;19.10;99.90
9157;DHT22;4613;48.392;9.998;2022-07-29T03:55:04;18.90;99.90
9157;DHT22;4613;48.392;9.998;2022-07-29T03:57:36;18.70;99.90
9157;DHT22;4613;48.392;9.998;2022-07-29T04:00:09;18.60;99.90
9157;DHT22;4613;48.392;9.998;2022-07-29T04:02:41;18.50;99.90
9157;DHT22;4613;48.392;9.998;2022-07-29T04:05:17;18.70;99.90
9157;DHT22;4613;48.392;9.998;2022-07-29T04:07:49;18.60;99.90
9157;DHT22;4613;48.392;9.998;2022-07-29T04:10:19;18.60;99.90
9157;DHT22;4613;48.392;9.998;2022-07-29T04:12:51;18.60;99.90
9157;DHT22;4613;48.392;9.998;2022-07-29T04:15:23;18.80;99.90
9157;DHT22;4613;48.392;9.998;2022-07-29T04:17:54;18.70;99.90
9157;DHT22;4613;48.392;9.998;2022-07-29T04:20:25;18.90;99.90
9157;DHT22;4613;48.392;9.998;2022-07-29T04:23:16;19.10;99.90
9157;DHT22;4613;48.392;9.998;2022-07-29T04:25:47;19.50;99.90
9157;DHT22;4613;48.392;9.998;2022-07-29T04:28:18;19.80;99.90
9157;DHT22;4613;48.392;9.998;2022-07-29T04:30:49;19.50;99.90
9157;DHT22;4613;48.392;9.998;2022-07-29T04:33:20;19.20;99.90
9157;DHT22;4613;48.392;9.998;2022-07-29T04:35:52;19.10;99.90
9157;DHT22;4613;48.392;9.998;2022-07-29T04:38:23;19.40;99.90
9157;DHT22;4613;48.392;9.998;2022-07-29T04:40:56;19.20;99.90
9157;DHT22;4613;48.392;9.998;2022-07-29T04:43:29;19.00;99.90
9157;DHT22;4613;48.392;9.998;2022-07-29T04:46:01;19.00;99.90
9157;DHT22;4613;48.392;9.998;2022-07-29T04:48:32;18.90;99.90
9157;DHT22;4613;48.392;9.998;2022-07-29T04:51:03;18.80;99.90
9157;DHT22;4613;48.392;9.998;2022-07-29T04:53:34;19.10;99.90
9157;DHT22;4613;48.392;9.998;2022-07-29T04:56:05;19.30;99.90
9157;DHT22;4613;48.392;9.998;2022-07-29T04:58:37;19.60;99.90
9157;DHT22;4613;48.392;9.998;2022-07-29T05:01:08;19.40;99.90
9157;DHT22;4613;48.392;9.998;2022-07-29T05:03:39;19.70;99.90
9157;DHT22;4613;48.392;9.998;2022-07-29T05:06:09;19.80;99.90
9157;DHT22;4613;48.392;9.998;2022-07-29T05:08:40;19.60;99.90
9157;DHT22;4613;48.392;9.998;2022-07-29T05:11:11;19.50;99.90
9157;DHT22;4613;48.392;9.998;2022-07-29T05:13:42;19.50;99.90
9157;DHT22;4613;48.392;9.998;2022-07-29T05:16:13;19.00;99.90
9157;DHT22;4613;48.392;9.998;2022-07-29T05:18:44;18.60;99.90
9157;DHT22;4613;48.392;9.998;2022-07-29T05:21:15;18.90;99.90
9157;DHT22;4613;48.392;9.998;2022-07-29T05:23:46;19.00;99.90
9157;DHT22;4613;48.392;9.998;2022-07-29T05:26:17;19.50;99.90
9157;DHT22;4613;48.392;9.998;2022-07-29T05:28:48;19.10;99.90
9157;DHT22;4613;48.392;9.998;2022-07-29T05:31:19;19.20;99.90
9157;DHT22;4613;48.392;9.998;2022-07-29T05:33:50;19.70;99.90
9157;DHT22;4613;48.392;9.998;2022-07-29T05:36:21;19.00;99.90
9157;DHT22;4613;48.392;9.998;2022-07-29T05:38:51;18.50;99.90
9157;DHT22;4613;48.392;9.998;2022-07-29T05:41:24;19.30;99.90
9157;DHT22;4613;48.392;9.998;2022-07-29T05:43:54;19.50;99.90
9157;DHT22;4613;48.392;9.998;2022-07-29T05:46:25;20.10;99.90
9157;DHT22;4613;48.392;9.998;2022-07-29T05:48:56;20.30;99.90
9157;DHT22;4613;48.392;9.998;2022-07-29T05:51:27;20.40;99.90
9157;DHT22;4613;48.392;9.998;2022-07-29T05:53:58;20.90;99.90
9157;DHT22;4613;48.392;9.998;2022-07-29T05:56:29;19.80;99.90
9157;DHT22;4613;48.392;9.998;2022-07-29T05:59:00;19.90;99.90
9157;DHT22;4613;48.392;9.998;2022-07-29T06:01:31;20.10;99.90
9157;DHT22;4613;48.392;9.998;2022-07-29T06:04:02;20.50;99.90
9157;DHT22;4613;48.392;9.998;2022-07-29T06:06:34;19.90;99.90
9157;DHT22;4613;48.392;9.998;2022-07-29T06:09:05;20.00;99.90
9157;DHT22;4613;48.392;9.998;2022-07-29T06:11:36;19.80;99.90
9157;DHT22;4613;48.392;9.998;2022-07-29T06:14:06;19.10;99.90
9157;DHT22;4613;48.392;9.998;2022-07-29T06:16:39;19.40;99.90
9157;DHT22;4613;48.392;9.998;2022-07-29T06:19:10;19.60;99.90
9157;DHT22;4613;48.392;9.998;2022-07-29T06:21:44;19.70;99.90
9157;DHT22;4613;48.392;9.998;2022-07-29T06:24:15;20.00;99.90
9157;DHT22;4613;48.392;9.998;2022-07-29T06:26:46;20.00;99.90
9157;DHT22;4613;48.392;9.998;2022-07-29T06:29:17;20.00;99.90
9157;DHT22;4613;48.392;9.998;2022-07-29T06:31:48;19.60;99.90
9157;DHT22;4613;48.392;9.998;2022-07-29T06:34:19;20.10;99.90
9157;DHT22;4613;48.392;9.998;2022-07-29T06:36:50;20.00;99.90
9157;DHT22;4613;48.392;9.998;2022-07-29T06:39:21;20.00;99.90
9157;DHT22;4613;48.392;9.998;2022-07-29T06:41:52;19.80;99.90
9157;DHT22;4613;48.392;9.998;2022-07-29T06:44:28;19.40;99.90
9157;DHT22;4613;48.392;9.998;2022-07-29T06:47:00;19.20;99.90
9157;DHT22;4613;48.392;9.998;2022-07-29T06:49:31;19.20;99.90
9157;DHT22;4613;48.392;9.998;2022-07-29T06:52:02;19.30;99.90
9157;DHT22;4613;48.392;9.998;2022-07-29T06:54:33;19.20;99.90
9157;DHT22;4613;48.392;9.998;2022-07-29T06:57:04;19.80;99.90
9157;DHT22;4613;48.392;9.998;2022-07-29T06:59:35;19.70;99.90
9157;DHT22;4613;48.392;9.998;2022-07-29T07:02:06;19.70;99.90
9157;DHT22;4613;48.392;9.998;2022-07-29T07:04:37;19.70;99.90
9157;DHT22;4613;48.392;9.998;2022-07-29T07:07:08;19.70;99.90
9157;DHT22;4613;48.392;9.998;2022-07-29T07:09:39;19.50;99.90
9157;DHT22;4613;48.392;9.998;2022-07-29T07:12:10;19.10;99.90
9157;DHT22;4613;48.392;9.998;2022-07-29T07:14:41;19.00;99.90
9157;DHT22;4613;48.392;9.998;2022-07-29T07:17:12;19.40;99.90
9157;DHT22;4613;48.392;9.998;2022-07-29T07:19:42;19.30;99.90
9157;DHT22;4613;48.392;9.998;2022-07-29T07:22:13;19.30;99.90
9157;DHT22;4613;48.392;9.998;2022-07-29T07:24:44;19.30;99.90
9157;DHT22;4613;48.392;9.998;2022-07-29T07:27:15;19.60;99.90
9157;DHT22;4613;48.392;9.998;2022-07-29T07:29:46;19.80;99.90
9157;DHT22;4613;48.392;9.998;2022-07-29T07:32:17;20.00;99.90
9157;DHT22;4613;48.392;9.998;2022-07-29T07:34:48;19.80;99.90
9157;DHT22;4613;48.392;9.998;2022-07-29T07:37:18;19.70;99.90
9157;DHT22;4613;48.392;9.998;2022-07-29T07:39:51;19.60;99.90
9157;DHT22;4613;48.392;9.998;2022-07-29T07:42:23;19.70;99.90
9157;DHT22;4613;48.392;9.998;2022-07-29T07:44:55;19.70;99.90
9157;DHT22;4613;48.392;9.998;2022-07-29T07:47:26;20.00;99.90
9157;DHT22;4613;48.392;9.998;2022-07-29T07:49:57;19.60;99.90
9157;DHT22;4613;48.392;9.998;2022-07-29T07:52:28;19.40;99.90
9157;DHT22;4613;48.392;9.998;2022-07-29T07:54:59;19.70;99.90
9157;DHT22;4613;48.392;9.998;2022-07-29T07:57:30;20.80;99.90
9157;DHT22;4613;48.392;9.998;2022-07-29T08:00:02;20.60;99.90
9157;DHT22;4613;48.392;9.998;2022-07-29T08:02:44;20.10;99.90
9157;DHT22;4613;48.392;9.998;2022-07-29T08:05:15;20.00;99.90
9157;DHT22;4613;48.392;9.998;2022-07-29T08:07:47;20.30;99.90
9157;DHT22;4613;48.392;9.998;2022-07-29T08:10:19;19.80;99.90
9157;DHT22;4613;48.392;9.998;2022-07-29T08:13:09;20.00;99.90
9157;DHT22;4613;48.392;9.998;2022-07-29T08:15:42;20.10;99.90
9157;DHT22;4613;48.392;9.998;2022-07-29T08:18:15;21.10;99.90
9157;DHT22;4613;48.392;9.998;2022-07-29T08:20:46;21.30;99.90
9157;DHT22;4613;48.392;9.998;2022-07-29T08:23:17;21.50;99.90
9157;DHT22;4613;48.392;9.998;2022-07-29T08:25:50;22.20;99.90
9157;DHT22;4613;48.392;9.998;2022-07-29T08:28:21;22.70;99.90
9157;DHT22;4613;48.392;9.998;2022-07-29T08:30:52;23.40;99.90
9157;DHT22;4613;48.392;9.998;2022-07-29T08:33:23;22.70;99.90
9157;DHT22;4613;48.392;9.998;2022-07-29T08:35:53;22.50;99.90
9157;DHT22;4613;48.392;9.998;2022-07-29T08:38:24;22.70;99.90
9157;DHT22;4613;48.392;9.998;2022-07-29T08:40:56;23.50;99.90
9157;DHT22;4613;48.392;9.998;2022-07-29T08:43:28;22.60;99.90
9157;DHT22;4613;48.392;9.998;2022-07-29T08:46:01;22.20;99.90
9157;DHT22;4613;48.392;9.998;2022-07-29T08:48:32;22.20;99.90
9157;DHT22;4613;48.392;9.998;2022-07-29T08:51:03;23.00;99.90
9157;DHT22;4613;48.392;9.998;2022-07-29T08:53:35;22.80;99.90
9157;DHT22;4613;48.392;9.998;2022-07-29T08:56:12;22.60;99.90
9157;DHT22;4613;48.392;9.998;2022-07-29T08:58:50;22.40;99.90
9157;DHT22;4613;48.392;9.998;2022-07-29T09:01:23;22.80;99.90
9157;DHT22;4613;48.392;9.998;2022-07-29T09:03:56;23.50;99.90
9157;DHT22;4613;48.392;9.998;2022-07-29T09:06:31;23.40;99.90
9157;DHT22;4613;48.392;9.998;2022-07-29T09:09:04;22.60;99.90
9157;DHT22;4613;48.392;9.998;2022-07-29T09:11:35;22.60;99.90
9157;DHT22;4613;48.392;9.998;2022-07-29T09:14:08;23.30;99.90
9157;DHT22;4613;48.392;9.998;2022-07-29T09:16:59;23.20;99.90
9157;DHT22;4613;48.392;9.998;2022-07-29T09:19:34;23.00;99.90
9157;DHT22;4613;48.392;9.998;2022-07-29T09:22:07;22.90;99.90
9157;DHT22;4613;48.392;9.998;2022-07-29T09:24:42;22.90;99.90
9157;DHT22;4613;48.392;9.998;2022-07-29T09:27:25;23.10;99.90
9157;DHT22;4613;48.392;9.998;2022-07-29T09:30:07;23.30;99.90
9157;DHT22;4613;48.392;9.998;2022-07-29T09:32:58;23.40;99.90
9157;DHT22;4613;48.392;9.998;2022-07-29T09:35:30;23.30;99.90
9157;DHT22;4613;48.392;9.998;2022-07-29T09:38:14;23.80;99.90
9157;DHT22;4613;48.392;9.998;2022-07-29T09:40:56;24.40;99.90
9157;DHT22;4613;48.392;9.998;2022-07-29T09:43:28;24.00;99.90
9157;DHT22;4613;48.392;9.998;2022-07-29T09:46:25;23.70;99.90
9157;DHT22;4613;48.392;9.998;2022-07-29T09:49:10;23.80;99.90
9157;DHT22;4613;48.392;9.998;2022-07-29T09:51:41;24.50;99.90
9157;DHT22;4613;48.392;9.998;2022-07-29T09:54:25;24.90;99.90
9157;DHT22;4613;48.392;9.998;2022-07-29T09:56:57;25.00;99.90
9157;DHT22;4613;48.392;9.998;2022-07-29T09:59:28;23.70;99.90
9157;DHT22;4613;48.392;9.998;2022-07-29T10:01:59;23.70;99.90
9157;DHT22;4613;48.392;9.998;2022-07-29T10:04:57;23.40;99.90
9157;DHT22;4613;48.392;9.998;2022-07-29T10:07:49;24.20;99.90
9157;DHT22;4613;48.392;9.998;2022-07-29T10:13:03;24.60;99.90
9157;DHT22;4613;48.392;9.998;2022-07-29T10:15:36;24.30;99.90
9157;DHT22;4613;48.392;9.998;2022-07-29T10:18:09;24.60;99.90
9157;DHT22;4613;48.392;9.998;2022-07-29T10:20:41;24.70;99.90
9157;DHT22;4613;48.392;9.998;2022-07-29T10:23:12;25.10;99.90
9157;DHT22;4613;48.392;9.998;2022-07-29T10:25:45;24.90;99.90
9157;DHT22;4613;48.392;9.998;2022-07-29T10:28:16;24.60;99.90
9157;DHT22;4613;48.392;9.998;2022-07-29T10:30:50;24.40;99.90
9157;DHT22;4613;48.392;9.998;2022-07-29T10:33:44;24.10;99.90
9157;DHT22;4613;48.392;9.998;2022-07-29T10:44:25;23.40;99.90
9157;DHT22;4613;48.392;9.998;2022-07-29T10:46:57;23.20;99.90
9157;DHT22;4613;48.392;9.998;2022-07-29T10:49:29;23.10;99.90
9157;DHT22;4613;48.392;9.998;2022-07-29T10:52:05;23.10;99.90
9157;DHT22;4613;48.392;9.998;2022-07-29T11:05:14;23.80;99.90
9157;DHT22;4613;48.392;9.998;2022-07-29T11:10:42;24.10;99.90
9157;DHT22;4613;48.392;9.998;2022-07-29T11:13:44;23.70;99.90
9157;DHT22;4613;48.392;9.998;2022-07-29T11:16:19;23.90;99.90
9157;DHT22;4613;48.392;9.998;2022-07-29T11:21:45;23.80;99.90
9157;DHT22;4613;48.392;9.998;2022-07-29T11:24:22;23.90;99.90
9157;DHT22;4613;48.392;9.998;2022-07-29T11:27:16;24.10;99.90
9157;DHT22;4613;48.392;9.998;2022-07-29T11:29:51;24.40;99.90
9157;DHT22;4613;48.392;9.998;2022-07-29T11:32:24;24.00;99.90
9157;DHT22;4613;48.392;9.998;2022-07-29T11:35:22;23.90;99.90
9157;DHT22;4613;48.392;9.998;2022-07-29T11:41:29;23.60;99.90
9157;DHT22;4613;48.392;9.998;2022-07-29T11:48:44;24.30;99.90
9157;DHT22;4613;48.392;9.998;2022-07-29T11:51:34;24.60;99.90
9157;DHT22;4613;48.392;9.998;2022-07-29T11:54:25;24.40;99.90
9157;DHT22;4613;48.392;9.998;2022-07-29T11:57:00;24.40;99.90
9157;DHT22;4613;48.392;9.998;2022-07-29T11:59:31;24.40;99.90
9157;DHT22;4613;48.392;9.998;2022-07-29T12:02:09;24.20;99.90
9157;DHT22;4613;48.392;9.998;2022-07-29T12:04:53;24.30;99.90
9157;DHT22;4613;48.392;9.998;2022-07-29T12:07:31;24.10;99.90
9157;DHT22;4613;48.392;9.998;2022-07-29T12:10:04;24.20;99.90
9157;DHT22;4613;48.392;9.998;2022-07-29T12:12:36;24.50;99.90
9157;DHT22;4613;48.392;9.998;2022-07-29T12:15:14;24.30;99.90
9157;DHT22;4613;48.392;9.998;2022-07-29T12:17:46;24.30;99.90
9157;DHT22;4613;48.392;9.998;2022-07-29T12:20:28;24.60;99.90
9157;DHT22;4613;48.392;9.998;2022-07-29T12:23:05;24.90;99.90
9157;DHT22;4613;48.392;9.998;2022-07-29T12:25:39;24.70;99.90
9157;DHT22;4613;48.392;9.998;2022-07-29T12:28:14;25.00;99.90
9157;DHT22;4613;48.392;9.998;2022-07-29T12:30:49;25.30;99.90
9157;DHT22;4613;48.392;9.998;2022-07-29T12:36:02;25.80;99.90
9157;DHT22;4613;48.392;9.998;2022-07-29T12:38:34;26.00;99.90
9157;DHT22;4613;48.392;9.998;2022-07-29T12:41:05;26.00;99.90
9157;DHT22;4613;48.392;9.998;2022-07-29T12:43:37;26.00;99.90
9157;DHT22;4613;48.392;9.998;2022-07-29T12:46:13;25.40;99.90
9157;DHT22;4613;48.392;9.998;2022-07-29T12:48:44;25.40;99.90
9157;DHT22;4613;48.392;9.998;2022-07-29T12:51:15;24.70;99.90
9157;DHT22;4613;48.392;9.998;2022-07-29T12:54:07;24.60;99.90
9157;DHT22;4613;48.392;9.998;2022-07-29T12:56:38;24.60;99.90
9157;DHT22;4613;48.392;9.998;2022-07-29T12:59:18;25.00;99.90
9157;DHT22;4613;48.392;9.998;2022-07-29T13:01:51;25.20;99.90
9157;DHT22;4613;48.392;9.998;2022-07-29T13:04:27;25.40;99.90
9157;DHT22;4613;48.392;9.998;2022-07-29T13:09:43;25.10;99.90
9157;DHT22;4613;48.392;9.998;2022-07-29T13:12:15;25.40;99.90
9157;DHT22;4613;48.392;9.998;2022-07-29T13:14:47;25.80;99.90
9157;DHT22;4613;48.392;9.998;2022-07-29T13:17:22;26.00;99.90
9157;DHT22;4613;48.392;9.998;2022-07-29T13:20:05;25.50;99.90
9157;DHT22;4613;48.392;9.998;2022-07-29T13:22:37;25.10;99.90
9157;DHT22;4613;48.392;9.998;2022-07-29T13:25:09;25.50;99.90
9157;DHT22;4613;48.392;9.998;2022-07-29T13:27:40;25.70;99.90
9157;DHT22;4613;48.392;9.998;2022-07-29T13:30:11;25.90;99.90
9157;DHT22;4613;48.392;9.998;2022-07-29T13:32:42;26.10;99.90
9157;DHT22;4613;48.392;9.998;2022-07-29T13:35:13;26.10;99.90
9157;DHT22;4613;48.392;9.998;2022-07-29T13:37:44;26.00;99.90
9157;DHT22;4613;48.392;9.998;2022-07-29T13:40:15;25.50;99.90
9157;DHT22;4613;48.392;9.998;2022-07-29T13:42:46;23.80;99.90
9157;DHT22;4613;48.392;9.998;2022-07-29T13:45:17;22.90;99.90
9157;DHT22;4613;48.392;9.998;2022-07-29T13:47:49;21.60;99.90
9157;DHT22;4613;48.392;9.998;2022-07-29T13:50:20;21.30;99.90
9157;DHT22;4613;48.392;9.998;2022-07-29T13:52:51;21.40;99.90
9157;DHT22;4613;48.392;9.998;2022-07-29T13:55:22;21.40;99.90
9157;DHT22;4613;48.392;9.998;2022-07-29T13:57:52;20.60;99.90
9157;DHT22;4613;48.392;9.998;2022-07-29T14:00:23;21.10;99.90
9157;DHT22;4613;48.392;9.998;2022-07-29T14:02:55;21.50;99.90
9157;DHT22;4613;48.392;9.998;2022-07-29T14:05:26;21.70;99.90
9157;DHT22;4613;48.392;9.998;2022-07-29T14:07:56;21.70;99.90
9157;DHT22;4613;48.392;9.998;2022-07-29T14:10:27;21.70;99.90
9157;DHT22;4613;48.392;9.998;2022-07-29T14:12:58;21.70;99.90
9157;DHT22;4613;48.392;9.998;2022-07-29T14:15:29;21.50;99.90
9157;DHT22;4613;48.392;9.998;2022-07-29T14:18:01;21.30;99.90
9157;DHT22;4613;48.392;9.998;2022-07-29T14:20:32;20.80;99.90
9157;DHT22;4613;48.392;9.998;2022-07-29T14:23:02;20.00;99.90
9157;DHT22;4613;48.392;9.998;2022-07-29T14:25:33;19.50;99.90
9157;DHT22;4613;48.392;9.998;2022-07-29T14:28:04;19.50;99.90
9157;DHT22;4613;48.392;9.998;2022-07-29T14:30:38;20.00;99.90
9157;DHT22;4613;48.392;9.998;2022-07-29T14:33:09;20.80;99.90
9157;DHT22;4613;48.392;9.998;2022-07-29T14:35:40;21.10;99.90
9157;DHT22;4613;48.392;9.998;2022-07-29T14:38:11;21.30;99.90
9157;DHT22;4613;48.392;9.998;2022-07-29T14:40:43;21.10;99.90
9157;DHT22;4613;48.392;9.998;2022-07-29T14:43:15;21.10;99.90
9157;DHT22;4613;48.392;9.998;2022-07-29T14:45:46;20.90;99.90
9157;DHT22;4613;48.392;9.998;2022-07-29T14:48:17;21.50;99.90
9157;DHT22;4613;48.392;9.998;2022-07-29T14:50:48;22.10;99.90
9157;DHT22;4613;48.392;9.998;2022-07-29T14:53:19;21.50;99.90
9157;DHT22;4613;48.392;9.998;2022-07-29T14:55:49;21.60;99.90
9157;DHT22;4613;48.392;9.998;2022-07-29T14:58:20;21.40;99.90
9157;DHT22;4613;48.392;9.998;2022-07-29T15:01:11;20.90;99.90
9157;DHT22;4613;48.392;9.998;2022-07-29T15:03:42;21.00;99.90
9157;DHT22;4613;48.392;9.998;2022-07-29T15:06:13;20.60;99.90
9157;DHT22;4613;48.392;9.998;2022-07-29T15:08:44;20.40;99.90
9157;DHT22;4613;48.392;9.998;2022-07-29T15:11:15;20.60;99.90
9157;DHT22;4613;48.392;9.998;2022-07-29T15:13:46;20.90;99.90
9157;DHT22;4613;48.392;9.998;2022-07-29T15:16:17;21.40;99.90
9157;DHT22;4613;48.392;9.998;2022-07-29T15:18:48;21.30;99.90
9157;DHT22;4613;48.392;9.998;2022-07-29T15:21:19;21.40;99.90
9157;DHT22;4613;48.392;9.998;2022-07-29T15:23:50;20.70;99.90
9157;DHT22;4613;48.392;9.998;2022-07-29T15:26:21;20.60;99.90
9157;DHT22;4613;48.392;9.998;2022-07-29T15:28:52;21.20;99.90
9157;DHT22;4613;48.392;9.998;2022-07-29T15:31:23;21.50;99.90
9157;DHT22;4613;48.392;9.998;2022-07-29T15:33:54;21.00;99.90
9157;DHT22;4613;48.392;9.998;2022-07-29T15:36:25;20.60;99.90
9157;DHT22;4613;48.392;9.998;2022-07-29T15:38:56;20.80;99.90
9157;DHT22;4613;48.392;9.998;2022-07-29T15:41:27;20.80;99.90
9157;DHT22;4613;48.392;9.998;2022-07-29T15:43:58;20.30;99.90
9157;DHT22;4613;48.392;9.998;2022-07-29T15:46:29;20.30;99.90
9157;DHT22;4613;48.392;9.998;2022-07-29T15:49:18;20.70;99.90
9157;DHT22;4613;48.392;9.998;2022-07-29T15:51:48;21.00;99.90
9157;DHT22;4613;48.392;9.998;2022-07-29T15:54:19;21.20;99.90
9157;DHT22;4613;48.392;9.998;2022-07-29T15:56:50;21.10;99.90
9157;DHT22;4613;48.392;9.998;2022-07-29T15:59:21;21.40;99.90
9157;DHT22;4613;48.392;9.998;2022-07-29T16:01:53;21.30;99.90
9157;DHT22;4613;48.392;9.998;2022-07-29T16:04:24;21.30;99.90
9157;DHT22;4613;48.392;9.998;2022-07-29T16:06:55;21.40;99.90
9157;DHT22;4613;48.392;9.998;2022-07-29T16:09:26;21.60;99.90
9157;DHT22;4613;48.392;9.998;2022-07-29T16:11:58;20.70;99.90
9157;DHT22;4613;48.392;9.998;2022-07-29T16:14:29;20.40;99.90
9157;DHT22;4613;48.392;9.998;2022-07-29T16:17:00;20.50;99.90
9157;DHT22;4613;48.392;9.998;2022-07-29T16:19:33;20.60;99.90
9157;DHT22;4613;48.392;9.998;2022-07-29T16:22:04;21.00;99.90
9157;DHT22;4613;48.392;9.998;2022-07-29T16:24:35;20.40;99.90
9157;DHT22;4613;48.392;9.998;2022-07-29T16:27:07;20.70;99.90
9157;DHT22;4613;48.392;9.998;2022-07-29T16:29:38;20.10;99.90
9157;DHT22;4613;48.392;9.998;2022-07-29T16:32:09;20.10;99.90
9157;DHT22;4613;48.392;9.998;2022-07-29T16:34:40;20.50;99.90
9157;DHT22;4613;48.392;9.998;2022-07-29T16:37:11;20.40;99.90
9157;DHT22;4613;48.392;9.998;2022-07-29T16:39:42;20.40;99.90
9157;DHT22;4613;48.392;9.998;2022-07-29T16:42:13;20.40;99.90
9157;DHT22;4613;48.392;9.998;2022-07-29T16:44:44;20.70;99.90
9157;DHT22;4613;48.392;9.998;2022-07-29T16:47:15;20.50;99.90
9157;DHT22;4613;48.392;9.998;2022-07-29T16:49:46;20.70;99.90
9157;DHT22;4613;48.392;9.998;2022-07-29T16:52:17;21.20;99.90
9157;DHT22;4613;48.392;9.998;2022-07-29T16:54:48;21.20;99.90
9157;DHT22;4613;48.392;9.998;2022-07-29T16:57:19;20.70;99.90
9157;DHT22;4613;48.392;9.998;2022-07-29T16:59:51;20.70;99.90
9157;DHT22;4613;48.392;9.998;2022-07-29T17:02:24;20.80;99.90
9157;DHT22;4613;48.392;9.998;2022-07-29T17:04:57;20.80;99.90
9157;DHT22;4613;48.392;9.998;2022-07-29T17:07:28;20.60;99.90
9157;DHT22;4613;48.392;9.998;2022-07-29T17:09:59;20.60;99.90
9157;DHT22;4613;48.392;9.998;2022-07-29T17:12:31;20.60;99.90
9157;DHT22;4613;48.392;9.998;2022-07-29T17:15:04;20.20;99.90
9157;DHT22;4613;48.392;9.998;2022-07-29T17:17:36;20.40;99.90
9157;DHT22;4613;48.392;9.998;2022-07-29T17:20:08;20.20;99.90
9157;DHT22;4613;48.392;9.998;2022-07-29T17:22:39;19.80;99.90
9157;DHT22;4613;48.392;9.998;2022-07-29T17:25:11;19.50;99.90
9157;DHT22;4613;48.392;9.998;2022-07-29T17:27:43;19.70;99.90
9157;DHT22;4613;48.392;9.998;2022-07-29T17:30:14;19.70;99.90
9157;DHT22;4613;48.392;9.998;2022-07-29T17:32:45;19.20;99.90